OINR

Details ICAO OINR (RZR)
Name RAMSAR
Region Iran
Timezone Asia/Tehran (UTC+3.5)
Plans Departing 1
Arriving 1
Stats Elevation -70 ft / -21 m (AMSL)
Location 36.909907° 50.679592°
Runways 1
Magnetic Variation 5.110° E
Sunrise 2017-12-18 03:46:13 UTC / 2017-12-18 07:16:13 Local
Sunset 2017-12-18 13:24:08 UTC / 2017-12-18 16:54:08 Local
Advertisement - Login to hide

Runways

ID Width Length Bearing (true) Bearing (mag) Surface Threshold Offset Overrun Length
13 148 ft / 45 m 4,919 ft / 1,499 m 130.46° 125.35° Asphalt 0 ft / 0 m 259 ft / 79 m
31 148 ft / 45 m 4,919 ft / 1,499 m 310.46° 305.35° Asphalt 0 ft / 0 m 263 ft / 80 m

Map

Weather


0- 5 10 15 20 25 30 35+ Temperature / ° C

Clouds and Precipitation
Forecast for 2017-12-18 12:00 UTC. Updated 17 minutes ago

Ground ~20,000 ft ~40,000 ft Winds

METAR

OINR 181100Z 09006KT CAVOK 14/05 Q1021

TAF

Not found

Frequencies

Tower 121.90 MHz TWR
Tower 122.90 MHz TWR
Warning: Do not use this data for real-world aviation or navigation. No guarantee of current accuracy is given.